North Salem, New Hampshire
Current Conditions -  °F | °C
As of 12:54 PM on Tuesday 21 Oct 2014 (Local Time) from KLWM Reporting Station
Scattered Clouds Scattered Clouds  
Wind Chill: 59°   Ceiling: Unl
Heat Index: 59°   Visibility: 10mi
Dew Point: 52°   Wind: 8mph
Humidity: 78%   Direction: 30°NNE
Pressure: 29.96"   Gusts: NA
Location:  42.84°N, 71.22°W
Report Text: KLWM 211654Z 03007KT 10SM SCT017 SCT100 15/11 A2996 RMK AO2 SLP145 T01500111
Loading
Personal Weather Stations






























Interactive Weather Map
Tropical Storm Tracking
New forecast layout! Learn more

10-Day Weather Forecast

Advertisements
Track Severe Weather on mobile